sensor_id;sensor_type;location;lat;lon;timestamp;P1;durP1;ratioP1;P2;durP2;ratioP2
29120;SDS011;16191;49.548;8.658;2023-04-01T00:00:57;5.07;;;1.33;;
29120;SDS011;16191;49.548;8.658;2023-04-01T00:03:25;3.85;;;1.65;;
29120;SDS011;16191;49.548;8.658;2023-04-01T00:05:54;4.97;;;1.20;;
29120;SDS011;16191;49.548;8.658;2023-04-01T00:08:22;6.88;;;1.10;;
29120;SDS011;16191;49.548;8.658;2023-04-01T00:10:49;3.42;;;1.10;;
29120;SDS011;16191;49.548;8.658;2023-04-01T00:13:17;5.22;;;1.10;;
29120;SDS011;16191;49.548;8.658;2023-04-01T00:15:45;3.35;;;1.30;;
29120;SDS011;16191;49.548;8.658;2023-04-01T00:18:12;3.15;;;0.88;;
29120;SDS011;16191;49.548;8.658;2023-04-01T00:20:39;4.78;;;1.17;;
29120;SDS011;16191;49.548;8.658;2023-04-01T00:23:08;4.55;;;1.33;;
29120;SDS011;16191;49.548;8.658;2023-04-01T00:25:36;5.07;;;1.38;;
29120;SDS011;16191;49.548;8.658;2023-04-01T00:28:02;3.80;;;0.82;;
29120;SDS011;16191;49.548;8.658;2023-04-01T00:30:29;4.93;;;0.90;;
29120;SDS011;16191;49.548;8.658;2023-04-01T00:32:55;4.15;;;1.00;;
29120;SDS011;16191;49.548;8.658;2023-04-01T00:35:22;3.83;;;0.90;;
29120;SDS011;16191;49.548;8.658;2023-04-01T00:37:48;3.53;;;1.00;;
29120;SDS011;16191;49.548;8.658;2023-04-01T00:40:32;6.50;;;1.42;;
29120;SDS011;16191;49.548;8.658;2023-04-01T00:43:01;10.20;;;1.48;;
29120;SDS011;16191;49.548;8.658;2023-04-01T00:45:30;9.70;;;1.20;;
29120;SDS011;16191;49.548;8.658;2023-04-01T00:48:03;5.60;;;1.10;;
29120;SDS011;16191;49.548;8.658;2023-04-01T00:50:35;7.50;;;1.50;;
29120;SDS011;16191;49.548;8.658;2023-04-01T00:53:03;5.50;;;1.33;;
29120;SDS011;16191;49.548;8.658;2023-04-01T00:55:32;3.38;;;0.90;;
29120;SDS011;16191;49.548;8.658;2023-04-01T00:58:03;4.57;;;0.95;;
29120;SDS011;16191;49.548;8.658;2023-04-01T01:00:33;7.13;;;1.27;;
29120;SDS011;16191;49.548;8.658;2023-04-01T01:03:01;4.65;;;1.30;;
29120;SDS011;16191;49.548;8.658;2023-04-01T01:05:32;14.07;;;2.25;;
29120;SDS011;16191;49.548;8.658;2023-04-01T01:11:44;4.97;;;1.23;;
29120;SDS011;16191;49.548;8.658;2023-04-01T01:14:49;4.35;;;1.30;;
29120;SDS011;16191;49.548;8.658;2023-04-01T01:17:44;5.68;;;1.20;;
29120;SDS011;16191;49.548;8.658;2023-04-01T01:20:48;4.03;;;1.02;;
29120;SDS011;16191;49.548;8.658;2023-04-01T01:32:41;8.02;;;1.58;;
29120;SDS011;16191;49.548;8.658;2023-04-01T01:35:26;5.28;;;1.35;;
29120;SDS011;16191;49.548;8.658;2023-04-01T01:38:21;9.73;;;1.63;;
29120;SDS011;16191;49.548;8.658;2023-04-01T01:41:08;3.40;;;1.02;;
29120;SDS011;16191;49.548;8.658;2023-04-01T01:43:41;6.68;;;1.30;;
29120;SDS011;16191;49.548;8.658;2023-04-01T01:46:13;5.40;;;1.48;;
29120;SDS011;16191;49.548;8.658;2023-04-01T01:48:45;6.38;;;1.13;;
29120;SDS011;16191;49.548;8.658;2023-04-01T01:51:13;7.30;;;1.00;;
29120;SDS011;16191;49.548;8.658;2023-04-01T01:53:40;5.88;;;1.20;;
29120;SDS011;16191;49.548;8.658;2023-04-01T01:56:07;8.63;;;1.73;;
29120;SDS011;16191;49.548;8.658;2023-04-01T01:58:42;5.10;;;1.08;;
29120;SDS011;16191;49.548;8.658;2023-04-01T02:01:15;6.60;;;1.20;;
29120;SDS011;16191;49.548;8.658;2023-04-01T02:03:56;7.22;;;1.63;;
29120;SDS011;16191;49.548;8.658;2023-04-01T02:06:26;8.80;;;1.95;;
29120;SDS011;16191;49.548;8.658;2023-04-01T02:09:00;7.32;;;1.65;;
29120;SDS011;16191;49.548;8.658;2023-04-01T02:11:30;7.68;;;1.20;;
29120;SDS011;16191;49.548;8.658;2023-04-01T02:14:05;7.35;;;1.85;;
29120;SDS011;16191;49.548;8.658;2023-04-01T02:19:34;4.63;;;1.23;;
29120;SDS011;16191;49.548;8.658;2023-04-01T02:22:05;11.63;;;1.75;;
29120;SDS011;16191;49.548;8.658;2023-04-01T02:24:40;7.38;;;1.60;;
29120;SDS011;16191;49.548;8.658;2023-04-01T02:27:09;6.47;;;1.60;;
29120;SDS011;16191;49.548;8.658;2023-04-01T02:29:36;7.05;;;1.42;;
29120;SDS011;16191;49.548;8.658;2023-04-01T02:32:06;6.00;;;1.27;;
29120;SDS011;16191;49.548;8.658;2023-04-01T02:34:35;9.18;;;1.55;;
29120;SDS011;16191;49.548;8.658;2023-04-01T02:37:02;7.90;;;1.45;;
29120;SDS011;16191;49.548;8.658;2023-04-01T02:39:29;6.07;;;1.52;;
29120;SDS011;16191;49.548;8.658;2023-04-01T02:41:56;9.05;;;1.50;;
29120;SDS011;16191;49.548;8.658;2023-04-01T02:44:23;5.75;;;1.33;;
29120;SDS011;16191;49.548;8.658;2023-04-01T02:46:49;4.18;;;1.15;;
29120;SDS011;16191;49.548;8.658;2023-04-01T02:49:16;8.13;;;1.50;;
29120;SDS011;16191;49.548;8.658;2023-04-01T02:51:43;4.78;;;1.13;;
29120;SDS011;16191;49.548;8.658;2023-04-01T02:54:09;5.65;;;1.65;;
29120;SDS011;16191;49.548;8.658;2023-04-01T02:56:36;6.05;;;1.77;;
29120;SDS011;16191;49.548;8.658;2023-04-01T02:59:03;7.05;;;1.63;;
29120;SDS011;16191;49.548;8.658;2023-04-01T03:01:29;13.45;;;1.85;;
29120;SDS011;16191;49.548;8.658;2023-04-01T03:03:56;4.28;;;1.15;;
29120;SDS011;16191;49.548;8.658;2023-04-01T03:06:23;8.35;;;1.33;;
29120;SDS011;16191;49.548;8.658;2023-04-01T03:08:50;5.60;;;1.15;;
29120;SDS011;16191;49.548;8.658;2023-04-01T03:11:16;6.50;;;1.50;;
29120;SDS011;16191;49.548;8.658;2023-04-01T03:13:43;5.60;;;1.20;;
29120;SDS011;16191;49.548;8.658;2023-04-01T03:16:10;8.35;;;1.27;;
29120;SDS011;16191;49.548;8.658;2023-04-01T03:18:36;6.70;;;1.42;;
29120;SDS011;16191;49.548;8.658;2023-04-01T03:21:16;5.22;;;1.15;;
29120;SDS011;16191;49.548;8.658;2023-04-01T03:23:45;7.63;;;1.30;;
29120;SDS011;16191;49.548;8.658;2023-04-01T03:26:11;4.75;;;1.17;;
29120;SDS011;16191;49.548;8.658;2023-04-01T03:28:39;6.97;;;1.15;;
29120;SDS011;16191;49.548;8.658;2023-04-01T03:31:06;4.88;;;1.05;;
29120;SDS011;16191;49.548;8.658;2023-04-01T03:33:40;10.00;;;1.55;;
29120;SDS011;16191;49.548;8.658;2023-04-01T03:36:07;5.82;;;1.17;;
29120;SDS011;16191;49.548;8.658;2023-04-01T03:38:35;4.57;;;1.67;;
29120;SDS011;16191;49.548;8.658;2023-04-01T03:41:01;7.18;;;1.35;;
29120;SDS011;16191;49.548;8.658;2023-04-01T03:43:29;5.80;;;1.45;;
29120;SDS011;16191;49.548;8.658;2023-04-01T03:45:56;4.45;;;1.10;;
29120;SDS011;16191;49.548;8.658;2023-04-01T03:48:26;3.70;;;1.20;;
29120;SDS011;16191;49.548;8.658;2023-04-01T03:50:53;5.65;;;1.10;;
29120;SDS011;16191;49.548;8.658;2023-04-01T03:53:19;6.95;;;1.27;;
29120;SDS011;16191;49.548;8.658;2023-04-01T03:55:47;5.15;;;1.20;;
29120;SDS011;16191;49.548;8.658;2023-04-01T03:58:14;6.30;;;2.33;;
29120;SDS011;16191;49.548;8.658;2023-04-01T04:00:41;9.30;;;2.25;;
29120;SDS011;16191;49.548;8.658;2023-04-01T04:03:08;12.52;;;1.83;;
29120;SDS011;16191;49.548;8.658;2023-04-01T04:05:35;8.70;;;1.65;;
29120;SDS011;16191;49.548;8.658;2023-04-01T04:08:03;7.18;;;1.50;;
29120;SDS011;16191;49.548;8.658;2023-04-01T04:10:30;5.28;;;1.40;;
29120;SDS011;16191;49.548;8.658;2023-04-01T04:12:57;5.28;;;1.35;;
29120;SDS011;16191;49.548;8.658;2023-04-01T04:15:25;4.97;;;1.23;;
29120;SDS011;16191;49.548;8.658;2023-04-01T04:17:52;4.88;;;1.58;;
29120;SDS011;16191;49.548;8.658;2023-04-01T04:20:18;5.43;;;1.27;;
29120;SDS011;16191;49.548;8.658;2023-04-01T04:22:46;4.43;;;1.20;;
29120;SDS011;16191;49.548;8.658;2023-04-01T04:25:12;5.63;;;1.63;;
29120;SDS011;16191;49.548;8.658;2023-04-01T04:27:39;4.95;;;1.08;;
29120;SDS011;16191;49.548;8.658;2023-04-01T04:30:08;4.22;;;1.13;;
29120;SDS011;16191;49.548;8.658;2023-04-01T04:32:35;3.22;;;1.00;;
29120;SDS011;16191;49.548;8.658;2023-04-01T04:35:03;4.38;;;1.23;;
29120;SDS011;16191;49.548;8.658;2023-04-01T04:37:29;4.60;;;1.10;;
29120;SDS011;16191;49.548;8.658;2023-04-01T04:39:56;7.93;;;1.17;;
29120;SDS011;16191;49.548;8.658;2023-04-01T04:42:23;6.43;;;1.58;;
29120;SDS011;16191;49.548;8.658;2023-04-01T04:44:54;5.30;;;1.33;;
29120;SDS011;16191;49.548;8.658;2023-04-01T04:47:21;6.53;;;1.30;;
29120;SDS011;16191;49.548;8.658;2023-04-01T04:49:48;8.82;;;1.48;;
29120;SDS011;16191;49.548;8.658;2023-04-01T04:52:14;7.57;;;1.10;;
29120;SDS011;16191;49.548;8.658;2023-04-01T04:54:41;3.58;;;1.35;;
29120;SDS011;16191;49.548;8.658;2023-04-01T04:57:07;8.23;;;1.30;;
29120;SDS011;16191;49.548;8.658;2023-04-01T04:59:41;4.50;;;1.20;;
29120;SDS011;16191;49.548;8.658;2023-04-01T05:02:12;4.47;;;1.42;;
29120;SDS011;16191;49.548;8.658;2023-04-01T05:04:39;6.25;;;1.48;;
29120;SDS011;16191;49.548;8.658;2023-04-01T05:07:08;6.78;;;1.35;;
29120;SDS011;16191;49.548;8.658;2023-04-01T05:09:35;6.03;;;1.40;;
29120;SDS011;16191;49.548;8.658;2023-04-01T05:12:02;6.65;;;1.10;;
29120;SDS011;16191;49.548;8.658;2023-04-01T05:14:43;4.55;;;1.30;;
29120;SDS011;16191;49.548;8.658;2023-04-01T05:17:12;6.63;;;1.30;;
29120;SDS011;16191;49.548;8.658;2023-04-01T05:19:39;4.80;;;1.27;;
29120;SDS011;16191;49.548;8.658;2023-04-01T05:22:06;6.68;;;1.48;;
29120;SDS011;16191;49.548;8.658;2023-04-01T05:24:32;5.45;;;1.20;;
29120;SDS011;16191;49.548;8.658;2023-04-01T05:26:59;6.40;;;1.30;;
29120;SDS011;16191;49.548;8.658;2023-04-01T05:29:27;10.15;;;1.65;;
29120;SDS011;16191;49.548;8.658;2023-04-01T05:32:01;5.97;;;1.33;;
29120;SDS011;16191;49.548;8.658;2023-04-01T05:34:28;9.65;;;1.83;;
29120;SDS011;16191;49.548;8.658;2023-04-01T05:36:54;8.35;;;1.10;;
29120;SDS011;16191;49.548;8.658;2023-04-01T05:39:21;3.78;;;1.02;;
29120;SDS011;16191;49.548;8.658;2023-04-01T05:41:47;4.53;;;0.95;;
29120;SDS011;16191;49.548;8.658;2023-04-01T05:44:14;3.72;;;1.08;;
29120;SDS011;16191;49.548;8.658;2023-04-01T05:46:41;6.38;;;1.40;;
29120;SDS011;16191;49.548;8.658;2023-04-01T05:49:15;2.38;;;0.98;;
29120;SDS011;16191;49.548;8.658;2023-04-01T05:51:42;3.75;;;0.98;;
29120;SDS011;16191;49.548;8.658;2023-04-01T05:54:08;7.97;;;1.63;;
29120;SDS011;16191;49.548;8.658;2023-04-01T05:56:36;3.78;;;0.98;;
29120;SDS011;16191;49.548;8.658;2023-04-01T05:59:02;4.55;;;1.13;;
29120;SDS011;16191;49.548;8.658;2023-04-01T06:01:29;3.83;;;1.20;;
29120;SDS011;16191;49.548;8.658;2023-04-01T06:03:56;6.65;;;1.48;;
29120;SDS011;16191;49.548;8.658;2023-04-01T06:06:25;4.63;;;1.20;;
29120;SDS011;16191;49.548;8.658;2023-04-01T06:09:07;9.85;;;1.50;;
29120;SDS011;16191;49.548;8.658;2023-04-01T06:26:04;4.32;;;1.17;;
29120;SDS011;16191;49.548;8.658;2023-04-01T06:28:54;6.07;;;1.30;;
29120;SDS011;16191;49.548;8.658;2023-04-01T06:36:57;5.70;;;1.10;;
29120;SDS011;16191;49.548;8.658;2023-04-01T06:39:31;9.45;;;1.35;;
29120;SDS011;16191;49.548;8.658;2023-04-01T06:42:30;6.65;;;1.23;;
29120;SDS011;16191;49.548;8.658;2023-04-01T06:51:28;4.45;;;1.10;;
29120;SDS011;16191;49.548;8.658;2023-04-01T06:54:20;8.50;;;1.25;;
29120;SDS011;16191;49.548;8.658;2023-04-01T06:57:20;4.50;;;1.10;;
29120;SDS011;16191;49.548;8.658;2023-04-01T06:59:57;3.00;;;0.82;;
29120;SDS011;16191;49.548;8.658;2023-04-01T07:05:05;4.30;;;1.27;;
29120;SDS011;16191;49.548;8.658;2023-04-01T07:07:40;3.38;;;1.13;;
29120;SDS011;16191;49.548;8.658;2023-04-01T07:10:20;5.88;;;1.10;;
29120;SDS011;16191;49.548;8.658;2023-04-01T07:13:13;7.93;;;1.55;;
29120;SDS011;16191;49.548;8.658;2023-04-01T07:15:59;5.43;;;1.02;;
29120;SDS011;16191;49.548;8.658;2023-04-01T07:21:23;4.57;;;1.00;;
29120;SDS011;16191;49.548;8.658;2023-04-01T07:24:04;4.65;;;0.75;;
29120;SDS011;16191;49.548;8.658;2023-04-01T07:26:40;4.72;;;1.13;;
29120;SDS011;16191;49.548;8.658;2023-04-01T07:29:11;6.78;;;1.35;;
29120;SDS011;16191;49.548;8.658;2023-04-01T07:34:26;6.97;;;1.30;;
29120;SDS011;16191;49.548;8.658;2023-04-01T07:37:10;3.05;;;0.88;;
29120;SDS011;16191;49.548;8.658;2023-04-01T07:40:04;5.30;;;1.20;;
29120;SDS011;16191;49.548;8.658;2023-04-01T07:48:44;3.13;;;1.10;;
29120;SDS011;16191;49.548;8.658;2023-04-01T07:54:37;4.10;;;1.05;;
29120;SDS011;16191;49.548;8.658;2023-04-01T07:57:17;5.10;;;1.13;;
29120;SDS011;16191;49.548;8.658;2023-04-01T07:59:58;4.90;;;1.08;;
29120;SDS011;16191;49.548;8.658;2023-04-01T08:05:33;4.13;;;1.17;;
29120;SDS011;16191;49.548;8.658;2023-04-01T08:08:16;5.93;;;1.50;;
29120;SDS011;16191;49.548;8.658;2023-04-01T08:14:22;3.72;;;1.13;;
29120;SDS011;16191;49.548;8.658;2023-04-01T08:17:16;2.58;;;1.00;;
29120;SDS011;16191;49.548;8.658;2023-04-01T08:22:41;7.38;;;1.20;;
29120;SDS011;16191;49.548;8.658;2023-04-01T08:25:22;2.90;;;0.90;;
29120;SDS011;16191;49.548;8.658;2023-04-01T08:28:40;4.05;;;1.05;;
29120;SDS011;16191;49.548;8.658;2023-04-01T08:33:44;2.33;;;1.15;;
29120;SDS011;16191;49.548;8.658;2023-04-01T08:39:09;6.57;;;1.02;;
29120;SDS011;16191;49.548;8.658;2023-04-01T08:45:00;4.38;;;0.98;;
29120;SDS011;16191;49.548;8.658;2023-04-01T08:57:01;3.80;;;0.70;;
29120;SDS011;16191;49.548;8.658;2023-04-01T08:59:50;4.53;;;0.90;;
29120;SDS011;16191;49.548;8.658;2023-04-01T09:14:31;3.90;;;1.00;;
29120;SDS011;16191;49.548;8.658;2023-04-01T09:17:42;2.90;;;0.70;;
29120;SDS011;16191;49.548;8.658;2023-04-01T09:20:44;1.98;;;0.90;;
29120;SDS011;16191;49.548;8.658;2023-04-01T09:25:58;4.53;;;0.90;;
29120;SDS011;16191;49.548;8.658;2023-04-01T09:40:15;3.08;;;0.88;;
29120;SDS011;16191;49.548;8.658;2023-04-01T09:43:16;1.92;;;0.88;;
29120;SDS011;16191;49.548;8.658;2023-04-01T10:00:50;1.27;;;0.60;;
29120;SDS011;16191;49.548;8.658;2023-04-01T10:36:06;2.05;;;0.75;;
29120;SDS011;16191;49.548;8.658;2023-04-01T10:38:43;3.17;;;0.98;;
29120;SDS011;16191;49.548;8.658;2023-04-01T10:44:49;2.22;;;1.10;;
29120;SDS011;16191;49.548;8.658;2023-04-01T10:53:51;0.82;;;0.70;;
29120;SDS011;16191;49.548;8.658;2023-04-01T10:57:14;5.45;;;1.13;;
29120;SDS011;16191;49.548;8.658;2023-04-01T11:04:04;3.85;;;0.60;;
29120;SDS011;16191;49.548;8.658;2023-04-01T11:10:55;1.38;;;0.60;;
29120;SDS011;16191;49.548;8.658;2023-04-01T11:16:43;2.05;;;1.02;;
29120;SDS011;16191;49.548;8.658;2023-04-01T11:19:36;1.42;;;0.60;;
29120;SDS011;16191;49.548;8.658;2023-04-01T11:25:24;1.58;;;0.70;;
29120;SDS011;16191;49.548;8.658;2023-04-01T11:31:22;2.78;;;0.90;;
29120;SDS011;16191;49.548;8.658;2023-04-01T11:36:50;1.90;;;0.80;;
29120;SDS011;16191;49.548;8.658;2023-04-01T11:39:34;1.05;;;0.63;;
29120;SDS011;16191;49.548;8.658;2023-04-01T11:45:30;2.13;;;0.73;;
29120;SDS011;16191;49.548;8.658;2023-04-01T11:56:50;1.98;;;0.70;;
29120;SDS011;16191;49.548;8.658;2023-04-01T12:05:28;1.17;;;0.57;;
29120;SDS011;16191;49.548;8.658;2023-04-01T12:10:51;0.73;;;0.70;;
29120;SDS011;16191;49.548;8.658;2023-04-01T12:22:03;1.45;;;0.52;;
29120;SDS011;16191;49.548;8.658;2023-04-01T12:24:46;1.25;;;0.55;;
29120;SDS011;16191;49.548;8.658;2023-04-01T12:30:30;1.52;;;0.60;;
29120;SDS011;16191;49.548;8.658;2023-04-01T12:36:13;1.42;;;0.65;;
29120;SDS011;16191;49.548;8.658;2023-04-01T12:38:57;1.23;;;0.60;;
29120;SDS011;16191;49.548;8.658;2023-04-01T12:41:55;1.88;;;0.70;;
29120;SDS011;16191;49.548;8.658;2023-04-01T12:47:31;3.10;;;0.95;;
29120;SDS011;16191;49.548;8.658;2023-04-01T12:53:24;0.50;;;0.50;;
29120;SDS011;16191;49.548;8.658;2023-04-01T12:56:14;0.65;;;0.65;;
29120;SDS011;16191;49.548;8.658;2023-04-01T12:59:03;1.25;;;0.73;;
29120;SDS011;16191;49.548;8.658;2023-04-01T13:01:50;3.30;;;0.70;;
29120;SDS011;16191;49.548;8.658;2023-04-01T13:04:37;0.80;;;0.60;;
29120;SDS011;16191;49.548;8.658;2023-04-01T13:07:39;1.13;;;0.55;;
29120;SDS011;16191;49.548;8.658;2023-04-01T13:15:27;0.50;;;0.50;;
29120;SDS011;16191;49.548;8.658;2023-04-01T13:18:20;2.25;;;0.98;;
29120;SDS011;16191;49.548;8.658;2023-04-01T13:21:30;2.00;;;0.95;;
29120;SDS011;16191;49.548;8.658;2023-04-01T13:27:01;1.85;;;0.70;;
29120;SDS011;16191;49.548;8.658;2023-04-01T13:32:59;5.70;;;1.73;;
29120;SDS011;16191;49.548;8.658;2023-04-01T13:44:06;0.52;;;0.50;;
29120;SDS011;16191;49.548;8.658;2023-04-01T13:52:22;1.20;;;0.70;;
29120;SDS011;16191;49.548;8.658;2023-04-01T14:03:48;2.03;;;0.60;;
29120;SDS011;16191;49.548;8.658;2023-04-01T14:12:13;1.48;;;0.63;;
29120;SDS011;16191;49.548;8.658;2023-04-01T14:23:13;0.70;;;0.60;;
29120;SDS011;16191;49.548;8.658;2023-04-01T14:28:54;0.50;;;0.50;;
29120;SDS011;16191;49.548;8.658;2023-04-01T14:34:05;1.02;;;0.50;;
29120;SDS011;16191;49.548;8.658;2023-04-01T14:36:59;1.92;;;0.43;;
29120;SDS011;16191;49.548;8.658;2023-04-01T14:48:17;1.17;;;0.50;;
29120;SDS011;16191;49.548;8.658;2023-04-01T14:50:53;1.48;;;0.50;;
29120;SDS011;16191;49.548;8.658;2023-04-01T14:56:00;0.85;;;0.80;;
29120;SDS011;16191;49.548;8.658;2023-04-01T14:58:41;2.80;;;0.52;;
29120;SDS011;16191;49.548;8.658;2023-04-01T15:01:18;1.38;;;0.60;;
29120;SDS011;16191;49.548;8.658;2023-04-01T15:04:25;1.27;;;0.60;;
29120;SDS011;16191;49.548;8.658;2023-04-01T15:09:50;0.40;;;0.30;;
29120;SDS011;16191;49.548;8.658;2023-04-01T15:12:27;2.22;;;0.60;;
29120;SDS011;16191;49.548;8.658;2023-04-01T15:20:28;3.60;;;0.60;;
29120;SDS011;16191;49.548;8.658;2023-04-01T15:31:17;0.40;;;0.40;;
29120;SDS011;16191;49.548;8.658;2023-04-01T15:39:13;1.67;;;0.75;;
29120;SDS011;16191;49.548;8.658;2023-04-01T15:42:08;1.50;;;0.70;;
29120;SDS011;16191;49.548;8.658;2023-04-01T15:55:18;2.95;;;0.90;;
29120;SDS011;16191;49.548;8.658;2023-04-01T15:58:03;2.20;;;0.88;;
29120;SDS011;16191;49.548;8.658;2023-04-01T16:00:53;3.17;;;0.80;;
29120;SDS011;16191;49.548;8.658;2023-04-01T16:08:52;1.98;;;0.57;;
29120;SDS011;16191;49.548;8.658;2023-04-01T16:11:29;0.95;;;0.57;;
29120;SDS011;16191;49.548;8.658;2023-04-01T16:14:29;4.47;;;0.85;;
29120;SDS011;16191;49.548;8.658;2023-04-01T16:17:05;1.30;;;0.80;;
29120;SDS011;16191;49.548;8.658;2023-04-01T16:31:09;3.10;;;0.82;;
29120;SDS011;16191;49.548;8.658;2023-04-01T16:36:23;1.55;;;0.80;;
29120;SDS011;16191;49.548;8.658;2023-04-01T16:42:19;1.05;;;0.85;;
29120;SDS011;16191;49.548;8.658;2023-04-01T16:44:59;1.75;;;0.75;;
29120;SDS011;16191;49.548;8.658;2023-04-01T16:47:30;2.13;;;1.00;;
29120;SDS011;16191;49.548;8.658;2023-04-01T16:58:22;3.58;;;1.30;;
29120;SDS011;16191;49.548;8.658;2023-04-01T17:00:58;3.15;;;1.30;;
29120;SDS011;16191;49.548;8.658;2023-04-01T17:03:36;1.48;;;1.00;;
29120;SDS011;16191;49.548;8.658;2023-04-01T17:06:11;1.60;;;1.00;;
29120;SDS011;16191;49.548;8.658;2023-04-01T17:08:51;2.28;;;1.38;;
29120;SDS011;16191;49.548;8.658;2023-04-01T17:14:35;2.20;;;1.33;;
29120;SDS011;16191;49.548;8.658;2023-04-01T17:17:36;2.95;;;1.50;;
29120;SDS011;16191;49.548;8.658;2023-04-01T17:20:14;1.05;;;0.63;;
29120;SDS011;16191;49.548;8.658;2023-04-01T17:22:56;2.03;;;0.67;;
29120;SDS011;16191;49.548;8.658;2023-04-01T17:25:37;1.75;;;0.73;;
29120;SDS011;16191;49.548;8.658;2023-04-01T17:31:10;1.75;;;0.60;;
29120;SDS011;16191;49.548;8.658;2023-04-01T17:42:40;1.52;;;0.70;;
29120;SDS011;16191;49.548;8.658;2023-04-01T17:53:44;1.10;;;0.73;;
29120;SDS011;16191;49.548;8.658;2023-04-01T18:02:19;2.45;;;1.00;;
29120;SDS011;16191;49.548;8.658;2023-04-01T18:04:57;2.20;;;0.70;;
29120;SDS011;16191;49.548;8.658;2023-04-01T18:24:42;1.58;;;1.00;;
29120;SDS011;16191;49.548;8.658;2023-04-01T18:27:16;1.17;;;0.88;;
29120;SDS011;16191;49.548;8.658;2023-04-01T18:30:11;1.95;;;1.20;;
29120;SDS011;16191;49.548;8.658;2023-04-01T18:38:16;1.70;;;0.93;;
29120;SDS011;16191;49.548;8.658;2023-04-01T18:41:10;2.70;;;1.02;;
29120;SDS011;16191;49.548;8.658;2023-04-01T18:43:42;1.70;;;1.10;;
29120;SDS011;16191;49.548;8.658;2023-04-01T18:52:02;1.73;;;0.90;;
29120;SDS011;16191;49.548;8.658;2023-04-01T18:55:24;1.60;;;1.00;;
29120;SDS011;16191;49.548;8.658;2023-04-01T18:57:46;2.08;;;1.08;;
29120;SDS011;16191;49.548;8.658;2023-04-01T19:00:20;2.05;;;1.00;;
29120;SDS011;16191;49.548;8.658;2023-04-01T19:05:33;2.63;;;1.13;;
29120;SDS011;16191;49.548;8.658;2023-04-01T19:08:18;3.47;;;1.20;;
29120;SDS011;16191;49.548;8.658;2023-04-01T19:10:48;1.23;;;1.02;;
29120;SDS011;16191;49.548;8.658;2023-04-01T19:16:40;1.63;;;1.20;;
29120;SDS011;16191;49.548;8.658;2023-04-01T19:21:47;2.67;;;1.30;;
29120;SDS011;16191;49.548;8.658;2023-04-01T19:27:26;2.28;;;1.13;;
29120;SDS011;16191;49.548;8.658;2023-04-01T19:33:12;4.35;;;1.08;;
29120;SDS011;16191;49.548;8.658;2023-04-01T19:38:38;2.25;;;1.08;;
29120;SDS011;16191;49.548;8.658;2023-04-01T19:41:16;4.73;;;1.13;;
29120;SDS011;16191;49.548;8.658;2023-04-01T19:46:51;2.17;;;1.10;;
29120;SDS011;16191;49.548;8.658;2023-04-01T19:49:41;4.35;;;1.10;;
29120;SDS011;16191;49.548;8.658;2023-04-01T19:52:14;3.58;;;1.23;;
29120;SDS011;16191;49.548;8.658;2023-04-01T19:59:54;2.50;;;1.80;;
29120;SDS011;16191;49.548;8.658;2023-04-01T20:02:50;4.25;;;1.92;;
29120;SDS011;16191;49.548;8.658;2023-04-01T20:08:16;2.63;;;1.50;;
29120;SDS011;16191;49.548;8.658;2023-04-01T20:10:53;2.28;;;1.23;;
29120;SDS011;16191;49.548;8.658;2023-04-01T20:13:35;2.63;;;1.40;;
29120;SDS011;16191;49.548;8.658;2023-04-01T20:16:36;2.65;;;1.40;;
29120;SDS011;16191;49.548;8.658;2023-04-01T20:19:07;3.67;;;1.60;;
29120;SDS011;16191;49.548;8.658;2023-04-01T20:21:41;3.83;;;1.30;;
29120;SDS011;16191;49.548;8.658;2023-04-01T20:29:55;2.85;;;1.40;;
29120;SDS011;16191;49.548;8.658;2023-04-01T20:50:50;3.97;;;1.50;;
29120;SDS011;16191;49.548;8.658;2023-04-01T20:53:02;5.13;;;2.05;;
29120;SDS011;16191;49.548;8.658;2023-04-01T21:01:28;3.10;;;1.33;;
29120;SDS011;16191;49.548;8.658;2023-04-01T21:04:13;3.45;;;1.60;;
29120;SDS011;16191;49.548;8.658;2023-04-01T21:07:04;4.20;;;2.00;;
29120;SDS011;16191;49.548;8.658;2023-04-01T21:09:43;2.67;;;1.30;;
29120;SDS011;16191;49.548;8.658;2023-04-01T21:18:55;2.13;;;1.00;;
29120;SDS011;16191;49.548;8.658;2023-04-01T21:26:59;1.45;;;1.23;;
29120;SDS011;16191;49.548;8.658;2023-04-01T21:35:27;3.53;;;1.40;;
29120;SDS011;16191;49.548;8.658;2023-04-01T21:38:13;1.20;;;1.05;;
29120;SDS011;16191;49.548;8.658;2023-04-01T21:40:55;1.73;;;1.25;;
29120;SDS011;16191;49.548;8.658;2023-04-01T21:57:57;2.63;;;1.20;;
29120;SDS011;16191;49.548;8.658;2023-04-01T22:00:32;2.30;;;0.93;;
29120;SDS011;16191;49.548;8.658;2023-04-01T22:03:18;2.28;;;1.25;;
29120;SDS011;16191;49.548;8.658;2023-04-01T22:08:56;5.00;;;1.90;;
29120;SDS011;16191;49.548;8.658;2023-04-01T22:11:38;4.68;;;1.70;;
29120;SDS011;16191;49.548;8.658;2023-04-01T22:14:13;3.10;;;1.70;;
29120;SDS011;16191;49.548;8.658;2023-04-01T22:16:54;3.38;;;1.30;;
29120;SDS011;16191;49.548;8.658;2023-04-01T22:19:30;2.42;;;1.40;;
29120;SDS011;16191;49.548;8.658;2023-04-01T22:27:58;4.80;;;1.70;;
29120;SDS011;16191;49.548;8.658;2023-04-01T22:30:38;2.28;;;1.20;;
29120;SDS011;16191;49.548;8.658;2023-04-01T22:33:23;3.25;;;1.80;;
29120;SDS011;16191;49.548;8.658;2023-04-01T22:44:24;2.47;;;1.20;;
29120;SDS011;16191;49.548;8.658;2023-04-01T22:47:02;3.67;;;1.40;;
29120;SDS011;16191;49.548;8.658;2023-04-01T22:49:46;3.55;;;1.60;;
29120;SDS011;16191;49.548;8.658;2023-04-01T22:52:31;3.15;;;1.60;;
29120;SDS011;16191;49.548;8.658;2023-04-01T22:55:10;2.75;;;1.60;;
29120;SDS011;16191;49.548;8.658;2023-04-01T22:57:48;4.05;;;1.52;;
29120;SDS011;16191;49.548;8.658;2023-04-01T23:00:47;2.10;;;1.30;;
29120;SDS011;16191;49.548;8.658;2023-04-01T23:03:35;3.50;;;1.50;;
29120;SDS011;16191;49.548;8.658;2023-04-01T23:06:08;5.85;;;1.40;;
29120;SDS011;16191;49.548;8.658;2023-04-01T23:11:40;2.03;;;1.17;;
29120;SDS011;16191;49.548;8.658;2023-04-01T23:16:48;2.67;;;1.40;;
29120;SDS011;16191;49.548;8.658;2023-04-01T23:22:42;3.88;;;1.30;;
29120;SDS011;16191;49.548;8.658;2023-04-01T23:25:24;2.72;;;1.35;;
29120;SDS011;16191;49.548;8.658;2023-04-01T23:28:22;4.35;;;1.40;;
29120;SDS011;16191;49.548;8.658;2023-04-01T23:30:51;3.75;;;1.55;;
29120;SDS011;16191;49.548;8.658;2023-04-01T23:38:15;3.85;;;1.70;;
29120;SDS011;16191;49.548;8.658;2023-04-01T23:40:42;4.47;;;1.42;;
29120;SDS011;16191;49.548;8.658;2023-04-01T23:43:13;5.22;;;1.70;;
29120;SDS011;16191;49.548;8.658;2023-04-01T23:45:46;4.00;;;1.50;;
29120;SDS011;16191;49.548;8.658;2023-04-01T23:48:13;4.63;;;1.20;;
29120;SDS011;16191;49.548;8.658;2023-04-01T23:50:42;1.30;;;1.20;;
29120;SDS011;16191;49.548;8.658;2023-04-01T23:53:30;5.50;;;1.60;;
29120;SDS011;16191;49.548;8.658;2023-04-01T23:56:01;5.82;;;1.65;;
29120;SDS011;16191;49.548;8.658;2023-04-01T23:58:40;1.90;;;1.10;;
